Airport View

Enter AWOS ICAO identifier for current METAR.

ex. KFNL

KFFZ 251154Z AUTO 05005KT 10SM CLR 26/05 A2985 RMK AO2 SLP081 T02610050 10294 20256 53008

25 Sep 2020 12:37

Other Area AWOS: KIWA - KCHD - KSDL - KPHX

TAF KIWA 251130Z 2512/2612 13007KT P6SM SKC FM251800 28006KT P6SM SKC FM260300 VRB03KT P6SM SKC FM260600 12006KT P6SM SKC